Time;durP1;ratioP1;P1;durP2;ratioP2;P2;SDS_P1;SDS_P2;PMS_P1;PMS_P2;Temp;Humidity;BMP_temperature;BMP_pressure;BME280_temperature;BME280_humidity;BME280_pressure;Samples;Min_cycle;Max_cycle;Signal;HPM_P1;HPM_P2
2021/12/19 00:10:08;;;;;;;9.25;2.85;;;8.90;99.90;;;;;;5093849;28;20047;-69
2021/12/19 00:12:34;;;;;;;7.78;3.40;;;8.90;99.90;;;;;;5098561;28;20024;-69
2021/12/19 00:14:59;;;;;;;6.15;2.75;;;8.90;99.90;;;;;;5090409;28;20028;-68
2021/12/19 00:17:25;;;;;;;6.25;2.00;;;8.90;99.90;;;;;;5090713;28;20036;-69
2021/12/19 00:19:55;;;;;;;5.78;2.60;;;9.00;99.90;;;;;;5096879;28;20429;-69
2021/12/19 00:22:20;;;;;;;5.45;2.13;;;9.00;99.90;;;;;;5098696;28;20032;-69
2021/12/19 00:24:46;;;;;;;5.55;2.42;;;9.00;99.90;;;;;;5102023;28;20038;-69
2021/12/19 00:27:12;;;;;;;6.00;2.47;;;9.00;99.90;;;;;;5100837;28;20028;-69
2021/12/19 00:29:38;;;;;;;5.32;2.38;;;9.00;99.90;;;;;;5094500;28;20044;-69
2021/12/19 00:32:04;;;;;;;7.45;2.10;;;9.00;99.90;;;;;;5099674;28;20027;-69
2021/12/19 00:34:29;;;;;;;5.50;2.13;;;9.00;99.90;;;;;;5091963;28;20177;-69
2021/12/19 00:36:55;;;;;;;11.88;2.55;;;9.10;99.90;;;;;;5095995;28;20036;-69
2021/12/19 00:39:21;;;;;;;9.63;2.50;;;9.00;99.90;;;;;;5094856;28;20043;-69
2021/12/19 00:41:52;;;;;;;4.80;2.38;;;9.00;99.90;;;;;;5095081;28;20020;-69
2021/12/19 00:44:23;;;;;;;5.65;2.47;;;9.00;99.90;;;;;;5100007;28;20080;-69
2021/12/19 00:46:51;;;;;;;9.43;2.63;;;9.00;99.90;;;;;;5099573;28;20039;-69
2021/12/19 00:49:19;;;;;;;5.43;1.80;;;9.10;99.90;;;;;;5093302;28;20036;-69
2021/12/19 00:51:45;;;;;;;3.40;1.80;;;9.10;99.90;;;;;;5092124;28;20043;-69
2021/12/19 00:54:13;;;;;;;4.75;1.63;;;9.10;99.90;;;;;;5081219;28;20103;-69
2021/12/19 00:56:42;;;;;;;4.03;2.05;;;9.10;99.90;;;;;;5094498;28;20077;-69
2021/12/19 00:59:12;;;;;;;4.88;2.08;;;9.10;99.90;;;;;;5093747;28;20059;-70
2021/12/19 01:01:38;;;;;;;6.93;2.72;;;9.10;99.90;;;;;;5091027;28;20052;-69
2021/12/19 01:04:10;;;;;;;6.13;2.83;;;9.10;99.90;;;;;;5093386;28;20052;-69
2021/12/19 01:06:40;;;;;;;;;;;9.10;99.90;;;;;;5089975;28;20040;-68
2021/12/19 01:09:06;;;;;;;5.88;2.63;;;9.20;99.90;;;;;;5096521;28;19922;-69
2021/12/19 01:11:33;;;;;;;8.88;2.72;;;9.20;99.90;;;;;;5093597;28;20024;-70
2021/12/19 01:14:04;;;;;;;8.82;2.55;;;9.20;99.90;;;;;;5093781;28;20032;-69
2021/12/19 01:16:34;;;;;;;10.63;3.42;;;9.20;99.90;;;;;;5091450;28;20020;-70
2021/12/19 01:19:00;;;;;;;9.70;3.17;;;9.20;99.90;;;;;;5094690;28;20531;-69
2021/12/19 01:21:31;;;;;;;9.10;3.10;;;9.20;99.90;;;;;;5091195;28;20115;-70
2021/12/19 01:23:56;;;;;;;9.65;3.75;;;9.20;99.90;;;;;;5092876;28;20380;-69
2021/12/19 01:26:24;;;;;;;16.38;4.57;;;9.20;99.90;;;;;;5094837;28;20031;-69
2021/12/19 01:28:50;;;;;;;11.32;3.60;;;9.20;99.90;;;;;;5093282;28;20051;-69
2021/12/19 01:31:16;;;;;;;4.00;2.00;;;9.20;99.90;;;;;;5094114;28;20024;-69
2021/12/19 01:33:41;;;;;;;6.20;2.70;;;9.20;99.90;;;;;;5092870;28;20086;-68
2021/12/19 01:36:07;;;;;;;8.60;2.60;;;9.20;99.90;;;;;;5091692;28;20028;-70
2021/12/19 01:38:33;;;;;;;8.48;3.13;;;9.20;99.90;;;;;;5093966;28;20488;-69
2021/12/19 01:41:00;;;;;;;6.88;3.00;;;9.20;99.90;;;;;;5096364;28;20436;-69
2021/12/19 01:43:27;;;;;;;6.50;2.60;;;9.20;99.90;;;;;;5093637;28;20123;-70
2021/12/19 01:45:54;;;;;;;5.93;2.70;;;9.20;99.90;;;;;;5094701;28;20103;-69
2021/12/19 01:48:21;;;;;;;9.07;2.92;;;9.20;99.90;;;;;;5083717;28;20434;-69
2021/12/19 01:50:47;;;;;;;12.70;3.08;;;9.20;99.90;;;;;;5094881;28;20043;-70
2021/12/19 01:53:13;;;;;;;11.75;2.95;;;9.20;99.90;;;;;;5096224;28;20028;-69
2021/12/19 01:55:41;;;;;;;12.57;3.58;;;9.20;99.90;;;;;;5093715;28;20081;-70
2021/12/19 01:58:07;;;;;;;10.75;3.63;;;9.20;99.90;;;;;;5093673;28;20024;-70
2021/12/19 02:00:40;;;;;;;9.23;2.78;;;9.20;99.90;;;;;;5086283;28;20089;-70
2021/12/19 02:03:08;;;;;;;5.30;2.42;;;9.20;99.90;;;;;;5094169;28;20490;-69
2021/12/19 02:05:35;;;;;;;5.57;2.13;;;9.20;99.90;;;;;;5092275;28;20080;-70
2021/12/19 02:08:01;;;;;;;4.00;2.22;;;9.30;99.90;;;;;;5093582;28;20478;-69
2021/12/19 02:10:30;;;;;;;6.75;2.72;;;9.30;99.90;;;;;;5093709;28;20047;-69
2021/12/19 02:12:58;;;;;;;5.45;2.50;;;9.30;99.90;;;;;;5093630;28;20035;-69
2021/12/19 02:15:27;;;;;;;6.80;2.28;;;9.30;99.90;;;;;;5092895;28;20474;-69
2021/12/19 02:17:56;;;;;;;3.38;1.70;;;9.30;99.90;;;;;;5094141;28;20028;-70
2021/12/19 02:20:22;;;;;;;4.13;1.48;;;9.30;99.90;;;;;;5093596;28;20023;-69
2021/12/19 02:22:48;;;;;;;3.85;2.00;;;9.30;99.90;;;;;;5097141;28;20031;-69
2021/12/19 02:25:14;;;;;;;7.03;2.60;;;9.30;99.90;;;;;;5093741;28;20024;-69
2021/12/19 02:27:40;;;;;;;6.57;2.20;;;9.30;99.90;;;;;;5094166;28;20036;-69
2021/12/19 02:30:08;;;;;;;7.72;2.45;;;9.30;99.90;;;;;;5093406;28;20067;-70
2021/12/19 02:32:36;;;;;;;5.00;2.08;;;9.30;99.90;;;;;;5094561;28;20055;-69
2021/12/19 02:35:08;;;;;;;6.10;2.40;;;9.30;99.90;;;;;;5094239;28;20024;-69
2021/12/19 02:48:14;;;;;;;4.32;2.30;;;9.20;99.90;;;;;;5092859;28;20043;-69
2021/12/19 02:50:48;;;;;;;7.20;2.35;;;9.20;99.90;;;;;;5090926;28;20399;-69
2021/12/19 02:53:27;;;;;;;3.58;1.95;;;9.20;99.90;;;;;;5093303;28;20032;-68
2021/12/19 02:55:53;;;;;;;6.57;2.35;;;9.20;99.90;;;;;;5091878;28;20028;-69
2021/12/19 02:58:19;;;;;;;4.40;2.40;;;9.20;99.90;;;;;;5093757;28;20118;-68
2021/12/19 03:00:45;;;;;;;4.72;2.15;;;9.30;99.90;;;;;;5094779;28;20077;-69
2021/12/19 03:03:10;;;;;;;6.90;2.95;;;9.30;99.90;;;;;;5094249;28;20085;-69
2021/12/19 03:05:37;;;;;;;3.95;2.25;;;9.30;99.90;;;;;;5092471;28;20039;-69
2021/12/19 03:08:03;;;;;;;10.68;3.10;;;9.30;99.90;;;;;;5095116;28;20065;-69
2021/12/19 03:18:14;;;;;;;4.38;2.40;;;9.30;99.90;;;;;;5090684;28;20104;-68
2021/12/19 03:20:42;;;;;;;7.03;2.60;;;9.20;99.90;;;;;;5096059;28;20048;-69
2021/12/19 03:23:11;;;;;;;7.13;1.55;;;9.20;99.90;;;;;;5093663;28;20101;-69
2021/12/19 03:25:37;;;;;;;6.53;2.03;;;9.30;99.90;;;;;;5094097;28;20039;-68
2021/12/19 03:28:05;;;;;;;6.25;1.95;;;9.20;99.90;;;;;;5093571;28;20024;-68
2021/12/19 03:30:31;;;;;;;4.70;1.80;;;9.20;99.90;;;;;;5092528;28;20043;-68
2021/12/19 03:32:57;;;;;;;5.40;2.00;;;9.20;99.90;;;;;;5093628;28;20480;-69
2021/12/19 03:35:24;;;;;;;5.57;1.85;;;9.30;99.90;;;;;;5092236;28;20053;-68
2021/12/19 03:37:51;;;;;;;6.45;2.15;;;9.30;99.90;;;;;;5093560;28;20073;-70
2021/12/19 03:40:34;;;;;;;4.57;1.63;;;9.20;99.90;;;;;;5095591;28;20032;-69
2021/12/19 03:43:09;;;;;;;4.85;1.77;;;9.20;99.90;;;;;;5097097;28;20127;-68
2021/12/19 03:45:36;;;;;;;3.25;1.65;;;9.20;99.90;;;;;;5087817;28;20044;-68
2021/12/19 03:48:04;;;;;;;4.03;1.60;;;9.20;99.90;;;;;;5092979;28;20024;-68
2021/12/19 03:50:33;;;;;;;3.22;1.27;;;9.10;99.90;;;;;;5091941;28;20036;-69
2021/12/19 03:53:00;;;;;;;5.15;1.58;;;9.10;99.90;;;;;;5093003;28;20024;-68
2021/12/19 03:55:26;;;;;;;4.40;1.40;;;9.10;99.90;;;;;;5083198;28;20047;-69
2021/12/19 03:57:52;;;;;;;4.97;1.98;;;9.10;99.90;;;;;;5091709;28;20529;-68
2021/12/19 04:00:23;;;;;;;5.72;2.10;;;9.10;99.90;;;;;;5097465;28;20024;-68
2021/12/19 04:02:55;;;;;;;5.57;1.80;;;9.10;99.90;;;;;;5097031;28;20078;-69
2021/12/19 04:05:21;;;;;;;7.10;2.42;;;9.10;99.90;;;;;;5099905;28;20024;-69
2021/12/19 04:07:47;;;;;;;2.63;1.52;;;9.00;99.90;;;;;;5096947;28;20050;-69
2021/12/19 04:10:13;;;;;;;5.18;1.83;;;9.00;99.90;;;;;;5095721;28;20507;-70
2021/12/19 04:12:39;;;;;;;3.67;1.60;;;8.90;99.90;;;;;;5096928;28;20028;-69
2021/12/19 04:15:05;;;;;;;4.97;1.38;;;9.00;99.90;;;;;;5096522;28;20374;-68
2021/12/19 04:17:31;;;;;;;5.75;1.88;;;8.90;99.90;;;;;;5096862;28;20028;-68
2021/12/19 04:19:57;;;;;;;3.45;1.50;;;8.90;99.90;;;;;;5096147;28;20027;-69
2021/12/19 04:22:23;;;;;;;2.65;1.33;;;8.90;99.90;;;;;;5098398;28;20035;-68
2021/12/19 04:24:48;;;;;;;4.78;1.77;;;8.90;99.90;;;;;;5097647;28;20107;-68
2021/12/19 04:27:14;;;;;;;4.05;1.88;;;8.90;99.90;;;;;;5096497;28;20451;-68
2021/12/19 04:29:40;;;;;;;7.00;2.40;;;8.90;99.90;;;;;;5095688;28;20052;-69
2021/12/19 04:32:07;;;;;;;6.18;1.80;;;8.90;99.90;;;;;;5096333;28;20070;-68
2021/12/19 04:34:33;;;;;;;6.80;2.38;;;8.90;99.90;;;;;;5097256;28;20032;-70
2021/12/19 04:37:06;;;;;;;6.15;2.22;;;8.90;99.90;;;;;;5095514;28;20081;-69
2021/12/19 04:40:13;;;;;;;5.07;2.10;;;9.00;99.90;;;;;;5084921;28;20387;-69
2021/12/19 04:53:22;;;;;;;6.25;1.88;;;8.90;99.90;;;;;;5094889;28;20031;-69
2021/12/19 05:01:17;;;;;;;5.95;1.27;;;8.80;99.90;;;;;;5094797;28;20031;-69
2021/12/19 05:14:16;;;;;;;2.15;1.05;;;8.80;99.90;;;;;;5093356;28;20065;-69
2021/12/19 05:16:44;;;;;;;6.05;1.83;;;8.80;99.90;;;;;;5096164;28;20078;-69
2021/12/19 05:20:15;;;;;;;8.50;2.75;;;8.80;99.90;;;;;;5095343;28;20049;-69
2021/12/19 05:22:06;;;;;;;7.43;2.15;;;8.80;99.90;;;;;;5086704;28;20412;-69
2021/12/19 05:27:08;;;;;;;6.65;2.28;;;8.80;99.90;;;;;;5096381;28;20103;-69
2021/12/19 05:29:36;;;;;;;8.82;2.30;;;8.80;99.90;;;;;;5094270;28;20440;-68
2021/12/19 05:32:03;;;;;;;7.63;2.10;;;8.80;99.90;;;;;;5095379;28;20039;-69
2021/12/19 05:34:30;;;;;;;6.53;2.60;;;8.80;99.90;;;;;;5095750;28;20032;-68
2021/12/19 05:45:13;;;;;;;1.73;1.10;;;8.80;99.90;;;;;;5090545;28;20080;-69
2021/12/19 05:47:44;;;;;;;4.28;1.05;;;8.80;99.90;;;;;;5095358;28;20027;-69
2021/12/19 05:50:09;;;;;;;0.90;0.57;;;8.80;99.90;;;;;;5096219;28;20468;-69
2021/12/19 05:52:36;;;;;;;1.70;0.60;;;8.80;99.90;;;;;;5095310;28;20130;-68
2021/12/19 05:55:02;;;;;;;5.00;1.25;;;8.70;99.90;;;;;;5093539;28;20152;-69
2021/12/19 05:57:28;;;;;;;3.20;0.95;;;8.80;99.90;;;;;;5094172;28;20452;-69
2021/12/19 05:59:53;;;;;;;4.53;1.23;;;8.70;99.90;;;;;;5094032;28;20095;-69
2021/12/19 06:02:19;;;;;;;3.53;1.23;;;8.70;99.90;;;;;;5094821;28;20024;-69
2021/12/19 06:04:44;;;;;;;3.28;0.90;;;8.80;99.90;;;;;;5093903;28;20028;-69
2021/12/19 06:07:10;;;;;;;4.93;1.05;;;8.70;99.90;;;;;;5094125;28;20036;-69
2021/12/19 06:09:36;;;;;;;2.88;1.10;;;8.70;99.90;;;;;;5093137;28;20048;-69
2021/12/19 06:12:03;;;;;;;3.25;1.10;;;8.70;99.90;;;;;;5094325;28;20027;-69
2021/12/19 06:14:32;;;;;;;2.08;1.00;;;8.70;99.90;;;;;;5092375;28;20030;-69
2021/12/19 06:17:00;;;;;;;3.47;1.17;;;8.70;99.90;;;;;;5093506;28;20016;-69
2021/12/19 06:19:26;;;;;;;4.47;1.27;;;8.70;99.90;;;;;;5095741;28;20028;-68
2021/12/19 06:21:52;;;;;;;3.92;1.55;;;8.80;99.90;;;;;;5092762;28;20028;-69
2021/12/19 06:24:17;;;;;;;11.20;3.20;;;8.70;99.90;;;;;;5095972;28;20027;-69
2021/12/19 06:26:43;;;;;;;13.57;4.75;;;8.70;99.90;;;;;;5095658;28;20035;-68
2021/12/19 06:29:09;;;;;;;11.88;4.80;;;8.80;99.90;;;;;;5093707;28;20052;-68
2021/12/19 06:31:34;;;;;;;10.38;4.75;;;8.80;99.90;;;;;;5094136;28;20030;-69
2021/12/19 06:34:00;;;;;;;11.10;4.70;;;8.80;99.90;;;;;;5093415;28;20032;-69
2021/12/19 06:36:26;;;;;;;7.93;3.35;;;8.80;99.90;;;;;;5095830;28;20526;-69
2021/12/19 06:38:52;;;;;;;7.35;2.42;;;8.80;99.90;;;;;;5091891;28;20020;-68
2021/12/19 06:41:18;;;;;;;8.13;2.25;;;8.80;99.90;;;;;;5094646;28;20024;-68
2021/12/19 06:43:44;;;;;;;3.15;1.05;;;8.80;99.90;;;;;;5094383;28;20035;-69
2021/12/19 06:46:10;;;;;;;3.08;1.25;;;8.80;99.90;;;;;;5092120;28;20040;-69
2021/12/19 06:48:35;;;;;;;3.83;1.05;;;8.80;99.90;;;;;;5094526;28;20035;-71
2021/12/19 06:51:01;;;;;;;5.50;1.00;;;8.80;99.90;;;;;;5095726;28;20046;-69
2021/12/19 06:53:27;;;;;;;4.43;0.75;;;8.80;99.90;;;;;;5094394;28;20024;-69
2021/12/19 06:55:53;;;;;;;6.13;1.20;;;8.80;99.90;;;;;;5094345;28;20371;-68
2021/12/19 06:58:18;;;;;;;5.40;2.10;;;8.80;99.90;;;;;;5093286;28;20035;-68
2021/12/19 07:00:44;;;;;;;28.17;4.30;;;8.80;99.90;;;;;;5092023;28;20032;-68
2021/12/19 07:03:11;;;;;;;8.52;3.33;;;8.80;99.90;;;;;;5093234;28;20028;-68
2021/12/19 07:05:37;;;;;;;12.93;4.68;;;8.80;99.90;;;;;;5093118;28;20119;-68
2021/12/19 07:08:04;;;;;;;12.25;4.13;;;8.80;99.90;;;;;;5084567;28;20028;-69
2021/12/19 07:10:30;;;;;;;9.88;4.10;;;8.80;99.90;;;;;;5083024;28;20078;-68
2021/12/19 07:12:55;;;;;;;10.82;4.03;;;8.80;99.90;;;;;;5094175;28;20051;-69
2021/12/19 07:15:24;;;;;;;9.13;3.50;;;8.80;99.90;;;;;;5092901;28;20032;-69
2021/12/19 07:17:51;;;;;;;7.25;3.08;;;8.80;99.90;;;;;;5093822;28;20024;-69
2021/12/19 07:20:16;;;;;;;8.50;3.28;;;8.80;99.90;;;;;;5093025;28;20034;-68
2021/12/19 07:22:42;;;;;;;15.35;3.97;;;8.90;99.90;;;;;;5095206;28;20023;-69
2021/12/19 07:25:08;;;;;;;8.43;2.70;;;8.90;99.90;;;;;;5092574;28;20076;-68
2021/12/19 07:27:33;;;;;;;7.68;2.92;;;8.90;99.90;;;;;;5091809;28;20032;-69
2021/12/19 07:29:59;;;;;;;7.65;3.42;;;8.80;99.90;;;;;;5093080;28;20055;-68
2021/12/19 07:32:25;;;;;;;8.48;3.03;;;8.90;99.90;;;;;;5094212;28;20020;-70
2021/12/19 07:34:51;;;;;;;11.27;3.53;;;8.90;99.90;;;;;;5095152;28;20028;-70
2021/12/19 07:37:21;;;;;;;10.57;3.50;;;8.90;99.90;;;;;;5094476;28;20384;-69
2021/12/19 07:39:58;;;;;;;15.75;4.22;;;8.90;99.90;;;;;;5092414;28;20032;-69
2021/12/19 07:42:23;;;;;;;8.88;3.33;;;8.90;99.90;;;;;;5093781;28;20027;-69
2021/12/19 07:44:49;;;;;;;12.13;3.50;;;8.90;99.90;;;;;;5093484;28;20028;-69
2021/12/19 07:47:15;;;;;;;10.90;3.80;;;8.90;99.90;;;;;;5094847;28;20400;-70
2021/12/19 07:49:41;;;;;;;8.45;4.25;;;8.90;99.90;;;;;;5094686;28;20039;-69
2021/12/19 07:52:07;;;;;;;12.43;5.05;;;8.90;99.90;;;;;;5092103;28;20464;-69
2021/12/19 07:54:33;;;;;;;12.30;5.30;;;8.90;99.90;;;;;;5094017;28;20042;-69
2021/12/19 07:56:59;;;;;;;10.65;4.72;;;9.00;99.90;;;;;;5092591;28;20380;-70
2021/12/19 07:59:25;;;;;;;10.20;3.40;;;9.00;99.90;;;;;;5092586;28;20073;-69
2021/12/19 08:01:51;;;;;;;8.43;2.30;;;9.00;99.90;;;;;;5092154;28;20024;-69
2021/12/19 08:04:16;;;;;;;6.60;2.20;;;8.90;99.90;;;;;;5091994;28;20028;-70
2021/12/19 08:06:42;;;;;;;5.15;1.70;;;8.90;99.90;;;;;;5091917;28;20024;-70
2021/12/19 08:09:10;;;;;;;5.55;1.38;;;8.90;99.90;;;;;;5090526;28;20020;-69
2021/12/19 08:11:42;;;;;;;3.25;1.30;;;8.80;99.90;;;;;;5093079;28;20107;-69
2021/12/19 08:14:11;;;;;;;7.30;1.50;;;8.80;99.90;;;;;;5091299;28;20422;-70
2021/12/19 08:16:37;;;;;;;5.28;1.50;;;8.80;99.90;;;;;;5091762;28;20040;-70
2021/12/19 08:19:03;;;;;;;3.17;1.48;;;8.70;99.90;;;;;;5091451;28;20039;-70
2021/12/19 08:21:29;;;;;;;3.10;1.30;;;8.70;99.90;;;;;;5091905;28;20069;-70
2021/12/19 08:23:58;;;;;;;3.55;1.25;;;8.80;99.90;;;;;;5091642;28;20032;-70
2021/12/19 08:26:25;;;;;;;4.10;1.60;;;8.80;99.90;;;;;;5093101;28;20134;-69
2021/12/19 08:28:53;;;;;;;9.48;2.15;;;8.80;99.90;;;;;;5090660;28;20431;-71
2021/12/19 08:31:19;;;;;;;7.10;2.03;;;8.80;99.90;;;;;;5092124;28;20047;-70
2021/12/19 08:33:46;;;;;;;7.43;2.38;;;8.80;99.90;;;;;;5092056;28;20111;-69
2021/12/19 08:36:12;;;;;;;9.30;2.85;;;8.80;99.90;;;;;;5088172;28;20027;-69
2021/12/19 08:38:37;;;;;;;10.73;2.85;;;8.90;99.90;;;;;;5090032;28;20028;-70
2021/12/19 08:41:03;;;;;;;15.32;3.53;;;8.90;99.90;;;;;;5090508;28;20024;-71
2021/12/19 08:43:29;;;;;;;7.90;2.95;;;8.90;99.90;;;;;;5091305;28;20388;-69
2021/12/19 08:45:55;;;;;;;8.73;3.13;;;9.00;99.90;;;;;;5095395;28;20408;-70
2021/12/19 08:48:21;;;;;;;8.43;3.30;;;9.00;99.90;;;;;;5091364;28;20047;-69
2021/12/19 08:50:50;;;;;;;9.25;3.60;;;9.00;99.90;;;;;;5085464;28;20043;-70
2021/12/19 08:53:17;;;;;;;12.75;3.63;;;9.00;99.90;;;;;;5093901;28;20062;-70
2021/12/19 08:55:43;;;;;;;10.93;2.88;;;9.10;99.90;;;;;;5094175;28;20058;-70
2021/12/19 08:58:09;;;;;;;11.73;3.17;;;9.10;99.90;;;;;;5093776;28;20024;-70
2021/12/19 09:00:35;;;;;;;10.57;3.38;;;9.20;99.90;;;;;;5094671;28;20052;-69
2021/12/19 09:03:00;;;;;;;13.88;4.78;;;9.20;99.90;;;;;;5085942;28;20109;-69
2021/12/19 09:05:28;;;;;;;12.05;4.00;;;9.20;99.90;;;;;;5081996;28;20031;-70
2021/12/19 09:07:54;;;;;;;17.13;3.58;;;9.20;99.90;;;;;;5078050;28;20028;-70
2021/12/19 09:10:21;;;;;;;16.52;4.28;;;9.30;99.90;;;;;;5095243;28;20040;-70
2021/12/19 09:12:47;;;;;;;17.92;5.10;;;9.30;99.90;;;;;;5095446;28;20036;-69
2021/12/19 09:15:13;;;;;;;13.27;4.75;;;9.30;99.90;;;;;;5093424;28;20471;-70
2021/12/19 09:17:39;;;;;;;19.00;4.97;;;9.40;99.90;;;;;;5092635;28;20036;-70
2021/12/19 09:20:06;;;;;;;21.50;5.10;;;9.50;99.90;;;;;;5093843;28;20036;-69
2021/12/19 09:22:32;;;;;;;21.90;5.10;;;9.50;99.90;;;;;;5092414;28;20028;-70
2021/12/19 09:24:58;;;;;;;11.43;3.30;;;9.50;99.90;;;;;;5075288;28;20042;-69
2021/12/19 09:27:24;;;;;;;17.15;3.90;;;9.50;99.90;;;;;;5093379;28;20032;-70
2021/12/19 09:29:49;;;;;;;16.02;3.70;;;9.50;99.90;;;;;;5094200;28;20051;-70
2021/12/19 09:32:15;;;;;;;12.15;3.40;;;9.50;99.90;;;;;;5094439;28;20034;-69
2021/12/19 09:34:41;;;;;;;10.38;2.75;;;9.40;99.90;;;;;;5094704;28;20054;-70
2021/12/19 09:37:06;;;;;;;8.55;2.95;;;9.40;99.90;;;;;;5094820;28;20024;-69
2021/12/19 09:39:32;;;;;;;15.43;5.03;;;9.40;99.90;;;;;;5093855;28;20054;-70
2021/12/19 09:42:06;;;;;;;15.63;4.05;;;9.40;99.90;;;;;;5093852;28;20050;-70
2021/12/19 09:44:33;;;;;;;19.40;4.82;;;9.40;99.90;;;;;;5091464;28;20066;-70
2021/12/19 09:46:59;;;;;;;12.90;3.78;;;9.40;99.90;;;;;;5084085;28;20057;-70
2021/12/19 09:49:25;;;;;;;18.42;4.40;;;9.40;99.90;;;;;;5092350;28;20480;-70
2021/12/19 09:51:52;;;;;;;14.68;4.75;;;9.50;99.90;;;;;;5092810;28;20028;-70
2021/12/19 09:54:19;;;;;;;20.15;5.60;;;9.40;99.90;;;;;;5094560;28;20142;-70
2021/12/19 09:56:45;;;;;;;6.93;2.40;;;9.50;99.90;;;;;;5093833;28;20028;-70
2021/12/19 09:59:19;;;;;;;13.65;3.22;;;9.40;99.90;;;;;;5093752;28;20052;-69
2021/12/19 10:01:46;;;;;;;15.63;4.55;;;9.40;99.90;;;;;;5092432;28;20031;-70
2021/12/19 10:04:36;;;;;;;13.32;4.00;;;9.40;99.90;;;;;;5093971;28;20031;-70
2021/12/19 10:07:29;;;;;;;12.52;3.05;;;9.30;99.90;;;;;;5092414;28;20031;-70
2021/12/19 10:10:01;;;;;;;16.13;3.88;;;9.40;99.90;;;;;;5087143;28;20086;-70
2021/12/19 10:15:03;;;;;;;15.48;3.92;;;9.40;99.90;;;;;;5092453;28;20035;-70
2021/12/19 10:17:29;;;;;;;15.10;4.43;;;9.50;99.90;;;;;;5091573;28;20031;-70
2021/12/19 10:19:57;;;;;;;11.23;3.70;;;9.50;99.90;;;;;;5093023;28;20028;-69
2021/12/19 10:22:29;;;;;;;16.67;4.07;;;9.50;99.90;;;;;;5092544;28;20468;-70
2021/12/19 10:24:57;;;;;;;17.77;3.60;;;9.60;99.90;;;;;;5093571;28;20049;-70
2021/12/19 10:27:33;;;;;;;9.80;3.28;;;9.60;99.90;;;;;;5093591;28;20035;-70
2021/12/19 10:29:59;;;;;;;11.35;3.58;;;9.60;99.90;;;;;;5093525;28;20182;-69
2021/12/19 10:32:24;;;;;;;9.52;2.40;;;9.60;99.90;;;;;;5092189;28;20107;-70
2021/12/19 10:34:50;;;;;;;14.60;3.00;;;9.60;99.90;;;;;;5093269;28;20111;-71
2021/12/19 10:37:32;;;;;;;17.25;3.28;;;9.60;99.90;;;;;;5093125;28;20184;-70
2021/12/19 10:40:03;;;;;;;14.32;2.67;;;9.50;99.90;;;;;;5092899;28;20024;-70
2021/12/19 10:42:34;;;;;;;9.43;2.92;;;9.50;99.90;;;;;;5090709;28;20036;-70
2021/12/19 10:47:44;;;;;;;13.95;3.30;;;9.50;99.90;;;;;;5092308;28;20062;-69
2021/12/19 10:50:10;;;;;;;8.65;2.05;;;9.50;99.90;;;;;;5085955;28;20044;-70
2021/12/19 10:52:38;;;;;;;10.50;2.85;;;9.60;99.90;;;;;;5090873;28;20032;-70
2021/12/19 10:55:10;;;;;;;10.27;2.25;;;9.50;99.90;;;;;;5092208;28;20036;-71
2021/12/19 10:57:40;;;;;;;9.50;2.13;;;9.50;99.90;;;;;;5094984;28;20052;-69
2021/12/19 11:00:22;;;;;;;11.40;2.30;;;9.50;99.90;;;;;;5074955;28;20028;-69
2021/12/19 11:02:48;;;;;;;12.80;3.35;;;9.50;99.90;;;;;;5106632;28;20111;-70
2021/12/19 11:05:37;;;;;;;11.45;2.45;;;9.50;99.90;;;;;;5092522;28;20099;-70
2021/12/19 11:08:09;;;;;;;9.00;1.58;;;9.50;99.90;;;;;;5091574;28;20028;-70
2021/12/19 11:10:37;;;;;;;;;;;9.50;99.90;;;;;;5093226;28;20042;-70
2021/12/19 11:13:16;;;;;;;7.35;1.88;;;9.40;99.90;;;;;;5092822;28;19904;-70
2021/12/19 11:15:42;;;;;;;9.43;1.90;;;9.40;99.90;;;;;;5075314;28;20360;-70
2021/12/19 11:18:09;;;;;;;6.50;1.52;;;9.40;99.90;;;;;;5091436;28;20069;-70
2021/12/19 11:20:34;;;;;;;10.98;2.25;;;9.40;99.90;;;;;;5091237;28;20030;-70
2021/12/19 11:23:00;;;;;;;6.88;2.10;;;9.40;99.90;;;;;;5093642;28;20028;-70
2021/12/19 11:25:26;;;;;;;3.42;1.90;;;9.40;99.90;;;;;;5089912;28;20036;-70
2021/12/19 11:28:02;;;;;;;8.98;2.10;;;9.50;99.90;;;;;;5093878;28;20024;-71
2021/12/19 11:30:28;;;;;;;10.05;2.53;;;9.50;99.90;;;;;;5059915;28;1084160;-70
2021/12/19 11:33:38;;;;;;;9.18;2.25;;;9.50;99.90;;;;;;5089028;28;20032;-70
2021/12/19 11:36:07;;;;;;;12.27;2.53;;;9.50;99.90;;;;;;5098014;28;20063;-70
2021/12/19 11:38:36;;;;;;;13.80;2.55;;;9.60;99.90;;;;;;5097360;28;20023;-70
2021/12/19 11:41:09;;;;;;;6.82;2.28;;;9.60;99.90;;;;;;5095606;28;20016;-70
2021/12/19 11:43:37;;;;;;;9.40;2.92;;;9.60;99.90;;;;;;5092846;28;20028;-70
2021/12/19 11:46:10;;;;;;;14.43;3.20;;;9.70;99.90;;;;;;5092815;28;20024;-70
2021/12/19 11:48:36;;;;;;;10.77;2.80;;;9.70;99.90;;;;;;5089537;28;20063;-70
2021/12/19 11:51:05;;;;;;;10.75;2.88;;;9.70;99.90;;;;;;5092753;28;20380;-69
2021/12/19 11:53:35;;;;;;;15.85;3.15;;;9.70;99.90;;;;;;5090389;28;20052;-70
2021/12/19 11:56:08;;;;;;;13.25;3.05;;;9.80;99.90;;;;;;5091195;28;20046;-70
2021/12/19 11:58:49;;;;;;;7.93;3.10;;;9.80;99.90;;;;;;5094872;28;20024;-70
2021/12/19 12:01:33;;;;;;;12.50;3.75;;;9.80;99.90;;;;;;5093521;28;20139;-70
2021/12/19 12:04:13;;;;;;;12.18;3.20;;;9.80;99.90;;;;;;5096775;28;20023;-69
2021/12/19 12:06:43;;;;;;;9.18;2.92;;;9.70;99.90;;;;;;5092467;28;20024;-71
2021/12/19 12:09:23;;;;;;;12.38;2.55;;;9.70;99.90;;;;;;5092528;28;20036;-71
2021/12/19 12:12:05;;;;;;;13.65;2.90;;;9.70;99.90;;;;;;5091306;28;20032;-71
2021/12/19 12:14:35;;;;;;;12.52;2.72;;;9.70;99.90;;;;;;5091570;28;20023;-70
2021/12/19 12:17:19;;;;;;;13.15;3.17;;;9.60;99.90;;;;;;5090236;28;20024;-70
2021/12/19 12:19:49;;;;;;;11.00;2.40;;;9.60;99.90;;;;;;5093153;28;20039;-70
2021/12/19 12:22:24;;;;;;;13.95;2.80;;;9.60;99.90;;;;;;5096189;28;20020;-70
2021/12/19 12:25:11;;;;;;;11.15;2.10;;;9.60;99.90;;;;;;5095691;28;20020;-70
2021/12/19 12:27:52;;;;;;;10.73;2.33;;;9.60;99.90;;;;;;5096191;28;20032;-70
2021/12/19 12:30:20;;;;;;;10.15;2.75;;;9.60;99.90;;;;;;5095703;28;20116;-69
2021/12/19 12:32:46;;;;;;;8.55;2.35;;;9.60;99.90;;;;;;5095961;28;20055;-69
2021/12/19 12:35:13;;;;;;;12.40;2.58;;;9.60;99.90;;;;;;5096453;28;20024;-71
2021/12/19 12:37:48;;;;;;;11.50;3.08;;;9.60;99.90;;;;;;5095748;28;20035;-70
2021/12/19 12:40:29;;;;;;;20.15;4.43;;;9.60;99.90;;;;;;5096047;28;20051;-70
2021/12/19 12:42:57;;;;;;;11.55;2.78;;;9.60;99.90;;;;;;5095112;28;20020;-69
2021/12/19 12:45:24;;;;;;;9.73;2.10;;;9.60;99.90;;;;;;5095296;28;20036;-71
2021/12/19 12:47:49;;;;;;;16.17;2.80;;;9.60;99.90;;;;;;5094982;28;20375;-69
2021/12/19 12:50:15;;;;;;;9.50;2.25;;;9.60;99.90;;;;;;5095624;28;20105;-71
2021/12/19 12:52:41;;;;;;;7.55;1.40;;;9.60;99.90;;;;;;5095755;28;20056;-70
2021/12/19 12:55:06;;;;;;;3.70;1.25;;;9.60;99.90;;;;;;5095686;28;20035;-70
2021/12/19 12:57:35;;;;;;;6.65;2.22;;;9.60;99.90;;;;;;5095698;28;20468;-70
2021/12/19 13:00:01;;;;;;;4.63;1.50;;;9.50;99.90;;;;;;5094171;28;20383;-70
2021/12/19 13:02:41;;;;;;;5.32;1.30;;;9.60;99.90;;;;;;5090956;28;20111;-71
2021/12/19 13:05:12;;;;;;;7.05;1.10;;;9.50;99.90;;;;;;5090678;28;20032;-70
2021/12/19 13:07:38;;;;;;;5.95;1.17;;;9.60;99.90;;;;;;5095630;28;20032;-71
2021/12/19 13:10:05;;;;;;;5.82;1.17;;;9.70;99.90;;;;;;5079094;28;20052;-70
2021/12/19 13:12:34;;;;;;;2.65;1.10;;;9.80;99.90;;;;;;5075507;28;20024;-70
2021/12/19 13:15:05;;;;;;;7.25;1.10;;;9.90;99.90;;;;;;5057291;28;20095;-70
2021/12/19 13:17:31;;;;;;;3.45;0.90;;;9.90;99.90;;;;;;5079870;28;20593;-70
2021/12/19 13:19:59;;;;;;;7.55;1.40;;;9.90;99.90;;;;;;5075089;28;20033;-70
2021/12/19 13:22:52;;;;;;;5.10;1.83;;;9.90;99.90;;;;;;5073367;28;20028;-70
2021/12/19 13:25:41;;;;;;;3.97;1.10;;;9.90;99.90;;;;;;5088697;28;20032;-70
2021/12/19 13:28:12;;;;;;;4.22;1.08;;;9.90;99.90;;;;;;5092859;28;20028;-71
2021/12/19 13:30:41;;;;;;;3.35;1.20;;;9.70;99.90;;;;;;5090241;28;20139;-69
2021/12/19 13:33:14;;;;;;;4.28;1.38;;;9.60;99.90;;;;;;5090832;28;20111;-69
2021/12/19 13:35:46;;;;;;;5.60;1.23;;;9.50;99.90;;;;;;5093528;28;20127;-70
2021/12/19 13:38:20;;;;;;;6.30;1.08;;;9.40;99.90;;;;;;5095598;28;20058;-70
2021/12/19 13:40:47;;;;;;;5.93;1.30;;;9.40;99.90;;;;;;5092863;28;20450;-70
2021/12/19 13:43:17;;;;;;;5.80;1.40;;;9.40;99.90;;;;;;5093499;28;20032;-71
2021/12/19 13:45:50;;;;;;;5.82;1.30;;;9.40;99.90;;;;;;5093752;28;20081;-69
2021/12/19 13:48:19;;;;;;;7.95;1.77;;;9.30;99.90;;;;;;5092564;28;20020;-70
2021/12/19 13:50:55;;;;;;;9.13;1.92;;;9.30;99.90;;;;;;5091243;28;20113;-70
2021/12/19 13:53:21;;;;;;;6.60;2.10;;;9.30;99.90;;;;;;5092051;28;20035;-70
2021/12/19 13:55:57;;;;;;;7.47;2.13;;;9.30;99.90;;;;;;5082193;28;20030;-70
2021/12/19 13:58:28;;;;;;;10.35;2.42;;;9.30;99.90;;;;;;5089037;28;20028;-69
2021/12/19 14:00:54;;;;;;;12.40;2.60;;;9.40;99.90;;;;;;5093489;28;20059;-70
2021/12/19 14:03:37;;;;;;;9.30;2.72;;;9.40;99.90;;;;;;5091944;28;20103;-69
2021/12/19 14:06:03;;;;;;;9.85;2.92;;;9.40;99.90;;;;;;5093357;28;20473;-70
2021/12/19 14:08:31;;;;;;;10.63;2.95;;;9.40;99.90;;;;;;5092790;28;20044;-70
2021/12/19 14:11:08;;;;;;;11.55;2.83;;;9.40;99.90;;;;;;5093815;28;20067;-70